Terminal Aerodrome Forecast
Issued by NWS Portland, OR

Home | Current Version | Previous Version | Text Only | Print | Product List | Glossary On
Versions: 1 2 3 4 5 6 7 8 9 10 11 12 13 14 15 16 17 18 19 20 21 22 23 24 25 26 27 28 29 30 31 32 33 34 35 36 37 38 39 40 41 42 43 44 45 46 47 48 49 50
000
FTUS46 KPQR 250520
TAFPDX
TAF
KPDX 250520Z 2506/2606 33004KT P6SM FEW120
     FM251000 VRB02KT P6SM MIFG FEW001
      TEMPO 2510/2514 2SM BR
     FM251500 35004KT P6SM SKC
     FM252100 36008KT P6SM SKC=

USA.gov is the U.S. government's official web portal to all federal, state and local government web resources and services.